Time,TemperatureF,DewpointF,PressureIn,WindDirection,WindDirectionDegrees,WindSpeedMPH,WindSpeedGustMPH,Humidity,HourlyPrecipIn,Conditions,Clouds,dailyrainin,SoftwareType,DateUTC
2013-08-01 00:28:00,62.9,57.3,29.95,WNW,283,1.0,1.0,82,0.00,,,0.00,Wunderground v.1.15,2013-08-01 05:28:00,
2013-08-01 00:58:00,62.4,58.2,29.95,WNW,283,1.0,1.0,86,0.00,,,0.00,Wunderground v.1.15,2013-08-01 05:58:00,
2013-08-01 01:28:00,61.8,57.6,29.95,WNW,283,1.0,1.0,86,0.00,,,0.00,Wunderground v.1.15,2013-08-01 06:28:00,
2013-08-01 01:58:00,61.2,56.0,29.95,WNW,283,2.0,2.0,83,0.00,,,0.00,Wunderground v.1.15,2013-08-01 06:58:00,
2013-08-01 02:28:00,60.7,55.8,29.95,WNW,283,0.0,0.0,84,0.00,,,0.00,Wunderground v.1.15,2013-08-01 07:28:00,
2013-08-01 02:58:00,60.2,54.3,29.95,WNW,283,1.0,4.0,81,0.00,,,0.00,Wunderground v.1.15,2013-08-01 07:58:00,
2013-08-01 03:28:00,59.6,54.4,29.95,WNW,283,0.0,0.0,83,0.00,,,0.00,Wunderground v.1.15,2013-08-01 08:28:00,
2013-08-01 04:58:00,57.6,53.4,29.95,WNW,283,2.0,2.0,86,0.00,,,0.00,Wunderground v.1.15,2013-08-01 09:58:00,
2013-08-01 05:28:00,57.2,53.4,29.97,WNW,283,4.0,4.0,87,0.00,,,0.00,Wunderground v.1.15,2013-08-01 10:28:00,
2013-08-01 05:58:00,56.7,52.9,29.97,WNW,283,2.0,2.0,87,0.00,,,0.00,Wunderground v.1.15,2013-08-01 10:58:00,
2013-08-01 06:28:00,56.7,52.9,29.97,WSW,254,1.0,1.0,87,0.00,,,0.00,Wunderground v.1.15,2013-08-01 11:28:00,
2013-08-01 06:58:00,57.5,53.3,29.97,NNW,329,0.0,1.0,86,0.00,,,0.00,Wunderground v.1.15,2013-08-01 11:58:00,
2013-08-01 07:28:00,58.3,53.2,29.97,SW,236,4.0,4.0,83,0.00,,,0.00,Wunderground v.1.15,2013-08-01 12:28:00,
2013-08-01 07:58:00,60.1,53.6,29.97,WSW,257,1.0,1.0,79,0.00,,,0.00,Wunderground v.1.15,2013-08-01 12:58:00,
2013-08-01 08:28:00,61.8,53.4,29.97,WSW,257,1.0,2.0,74,0.00,,,0.00,Wunderground v.1.15,2013-08-01 13:28:00,
2013-08-01 08:58:00,64.0,52.4,29.97,WNW,288,5.0,5.0,66,0.00,,,0.00,Wunderground v.1.15,2013-08-01 13:58:00,
2013-08-01 09:28:00,65.6,52.2,29.96,WNW,289,9.0,12.0,62,0.00,,,0.00,Wunderground v.1.15,2013-08-01 14:28:00,
2013-08-01 10:28:00,69.3,51.9,29.95,WNW,289,8.0,10.0,54,0.00,,,0.00,Wunderground v.1.15,2013-08-01 15:28:00,
2013-08-01 13:28:00,75.4,48.7,29.93,NW,318,12.0,12.0,39,0.00,,,0.00,Wunderground v.1.15,2013-08-01 18:28:00,
2013-08-01 13:58:00,75.6,47.5,29.92,West,271,11.0,13.0,37,0.00,,,0.00,Wunderground v.1.15,2013-08-01 18:58:00,
2013-08-01 14:58:00,77.0,47.2,29.91,West,277,10.0,16.0,35,0.00,,,0.00,Wunderground v.1.15,2013-08-01 19:58:00,
2013-08-01 15:28:00,76.7,49.2,29.91,West,277,7.0,7.0,38,0.00,,,0.00,Wunderground v.1.15,2013-08-01 20:28:00,
2013-08-01 15:58:00,77.0,48.7,29.90,WNW,284,7.0,7.0,37,0.00,,,0.00,Wunderground v.1.15,2013-08-01 20:58:00,
2013-08-01 16:28:00,77.4,50.5,29.89,WNW,292,6.0,6.0,39,0.00,,,0.00,Wunderground v.1.15,2013-08-01 21:28:00,
2013-08-01 16:58:00,76.7,49.9,29.88,WSW,257,6.0,6.0,39,0.00,,,0.00,Wunderground v.1.15,2013-08-01 21:58:00,
2013-08-01 17:28:00,76.8,50.6,29.87,WSW,250,5.0,5.0,40,0.00,,,0.00,Wunderground v.1.15,2013-08-01 22:28:00,
2013-08-01 17:58:00,77.4,50.5,29.86,WSW,257,7.0,7.0,39,0.00,,,0.00,Wunderground v.1.15,2013-08-01 22:58:00,
2013-08-01 19:28:00,77.4,52.5,29.85,West,260,3.0,4.0,42,0.00,,,0.00,Wunderground v.1.15,2013-08-02 00:28:00,
2013-08-01 19:58:00,76.5,54.8,29.84,WSW,238,1.0,1.0,47,0.00,,,0.00,Wunderground v.1.15,2013-08-02 00:58:00,
2013-08-01 21:28:00,70.1,56.5,29.83,SSE,151,1.0,1.0,62,0.00,,,0.00,Wunderground v.1.15,2013-08-02 02:28:00,
2013-08-01 22:28:00,67.1,57.8,29.83,SSE,151,1.0,1.0,72,0.00,,,0.00,Wunderground v.1.15,2013-08-02 03:28:00,
2013-08-01 23:28:00,65.3,58.3,29.82,SSE,151,0.0,0.0,78,0.00,,,0.00,Wunderground v.1.15,2013-08-02 04:28:00,
2013-08-01 23:58:00,64.2,58.2,29.82,SE,142,2.0,3.0,81,0.00,,,0.00,Wunderground v.1.15,2013-08-02 04:58:00,